Startpagina
METAR-TAF:

METAR-TAF

Vliegvelden :

Wonderboom Airport

Pretoria, Zuid-Afrika

breedte: 25-39S, lengte: 028-13E, hoogte: 1248 m

Actueel weer

Dit bericht is 2 uur en het 42 minuten geleden gemaakt, om 14:00 UTC
Wind 15 kt uit het westen
Temperatuur 33°C
Vochtigheid 46%
Druk 1016 hPa
Zicht 10 km of meer
Gebroken wolken op 2000 ft

METAR: FAWB 231400Z 26015KT 9999 BKN020 33/20 Q1016

Tijdstip: 18:42 (16:42 UTC)

Verwachting

Dit bericht is 3 uur en het 22 minuten geleden gemaakt, om 13:20 UTC
Verwachting geldig van 23 om 10 UTC tot 23 om 18 UTC
Wind 8 kt uit het noordnoordwesten
Zicht 10 km of meer
Gebroken wolken op 4000 ft
Kans 30% :
Tijdelijke
van 23 om 13 UTC tot 23 om 18 UTC
Wind 15 kt uit het zuidzuidoosten met uitschieters tot 25 kt
Weinig wolken op 3500 ft, Cumulonimbus.
onweer, lichte regen

TAF: FAWB 231320Z 2310/2318 34008KT 9999 BKN040 TX28/2313Z TN23/2318Z PROB30 TEMPO 2313/2318 16015G25KT -TSRA FEW035CB

Waarnemingen en weersverwachtingen van meer dan 4000 vliegvelden (METAR en TAF).

De beschikbare stations zijn de gele en rode punten op de kaart.

Ga met uw muis naar het station om de naam te zien.

Klik dan om waarnemingen en weersverwachtingen te zien.

kaart wijzigen: klik op de groene knoppen met een zwart kruis om in te zoomen, op de groene knop met een streepje om uit te zoomen of op de groene pijlen voor aangrenzende kaarten.


METAR-TAF: